MMHO/HMO METAR and TAF weather

Enter ICAO airport designator
Station Type Date Time Source
MMHO METAR 2021/09/28 13:41 UTC NOAA

MMHO 281341Z 13003KT 10SM SCT040 24/14 A2992 RMK 8/400 ISOL AC HZY


Station Type Date Time Source
MMHO Decoded METAR 2021/09/28 13:41 UTC NOAA

Hermosillo, Son., Mexico (MMHO) 29-04N 110-57W
Sep 28, 2021 - 09:41 AM EDT / 2021.09.28 1341 UTC
Wind: from the SE (130 degrees) at 3 MPH (3 KT):0
Visibility: 10 mile(s):0
Sky conditions: partly cloudy
Temperature: 75 F (24 C)
Dew Point: 57 F (14 C)
Relative Humidity: 53%
Pressure (altimeter): 29.92 in. Hg (1013 hPa)
ob: MMHO 281341Z 13003KT 10SM SCT040 24/14 A2992 RMK 8/400 ISOL AC HZY
cycle: 13

Station Type Date Time Source
MMHO TAF 2021/09/25 06:51 UTC NOAA

TAF MMHO 250342Z 2506/2606 24005KT P6SM VC TS SCT020 BKN100
FM250800 24005KT P6SM SCT030 BKN200
FM251700 24010KT P6SM SCT030 SCT100
FM260200 24005KT P6SM VC TS SCT030 BKN100

Example: see airport list